createdAt,value
2019-02-12T00:01:06.601Z,0.57
2019-02-12T00:03:39.180Z,0.59
2019-02-12T00:06:11.853Z,0.66
2019-02-12T00:08:44.437Z,0.66
2019-02-12T00:11:17.078Z,0.64
2019-02-12T00:13:49.752Z,0.69
2019-02-12T00:16:22.344Z,0.78
2019-02-12T00:18:54.913Z,0.76
2019-02-12T00:21:27.474Z,0.77
2019-02-12T00:24:00.078Z,0.73
2019-02-12T00:26:32.698Z,0.76
2019-02-12T00:29:05.328Z,0.78
2019-02-12T00:31:37.892Z,0.78
2019-02-12T00:34:10.582Z,0.81
2019-02-12T00:36:43.241Z,0.78
2019-02-12T00:39:16.921Z,0.74
2019-02-12T00:41:49.502Z,0.66
2019-02-12T00:44:22.481Z,0.67
2019-02-12T00:46:55.225Z,0.68
2019-02-12T00:49:27.796Z,0.66
2019-02-12T00:52:00.476Z,0.68
2019-02-12T00:54:33.100Z,0.74
2019-02-12T00:57:05.676Z,0.78
2019-02-12T00:59:38.477Z,0.78
2019-02-12T01:02:11.733Z,0.87
2019-02-12T01:04:44.479Z,0.80
2019-02-12T01:07:17.145Z,0.85
2019-02-12T01:09:49.744Z,0.74
2019-02-12T01:12:22.519Z,0.69
2019-02-12T01:14:55.194Z,0.60
2019-02-12T01:17:27.823Z,0.49
2019-02-12T01:20:00.451Z,0.36
2019-02-12T01:22:33.094Z,0.27
2019-02-12T01:25:05.883Z,0.26
2019-02-12T01:27:38.584Z,0.28
2019-02-12T01:30:16.730Z,0.29
2019-02-12T01:32:49.626Z,0.30
2019-02-12T01:35:22.291Z,0.38
2019-02-12T01:37:55.066Z,0.43
2019-02-12T01:40:27.766Z,0.38
2019-02-12T01:43:00.386Z,0.34
2019-02-12T01:45:33.050Z,0.38
2019-02-12T01:48:05.728Z,0.34
2019-02-12T01:50:38.402Z,0.29
2019-02-12T01:53:11.106Z,0.21
2019-02-12T01:55:43.877Z,0.20
2019-02-12T01:58:16.729Z,0.17
2019-02-12T02:00:49.390Z,0.20
2019-02-12T02:03:22.079Z,0.19
2019-02-12T02:05:54.625Z,0.14
2019-02-12T02:08:27.414Z,0.15
2019-02-12T02:11:03.145Z,0.13
2019-02-12T02:13:35.828Z,0.03
2019-02-12T02:16:08.623Z,0.01
2019-02-12T02:18:41.247Z,0.06
2019-02-12T02:21:14.127Z,0.00
2019-02-12T02:23:46.744Z,-0.04
2019-02-12T02:26:19.341Z,-0.06
2019-02-12T02:28:52.031Z,-0.08
2019-02-12T02:31:24.702Z,-0.18
2019-02-12T02:33:57.321Z,-0.20
2019-02-12T02:36:30.037Z,-0.33
2019-02-12T02:39:02.633Z,-0.35
2019-02-12T02:41:35.270Z,-0.31
2019-02-12T02:44:07.940Z,-0.28
2019-02-12T02:46:40.735Z,-0.21
2019-02-12T02:49:13.312Z,-0.26
2019-02-12T02:51:53.772Z,-0.29
2019-02-12T02:54:19.978Z,-0.38
2019-02-12T02:56:52.618Z,-0.56
2019-02-12T02:59:25.214Z,-0.63
2019-02-12T03:01:57.834Z,-0.61
2019-02-12T03:04:30.591Z,-0.55
2019-02-12T03:07:03.257Z,-0.57
2019-02-12T03:09:35.887Z,-0.61
2019-02-12T03:12:08.634Z,-0.70
2019-02-12T03:14:41.272Z,-0.76
2019-02-12T03:17:14.134Z,-0.85
2019-02-12T03:19:49.976Z,-0.93
2019-02-12T03:22:22.694Z,-0.95
2019-02-12T03:24:55.347Z,-0.96
2019-02-12T03:27:28.027Z,-1.03
2019-02-12T03:30:00.650Z,-1.05
2019-02-12T03:32:33.252Z,-1.08
2019-02-12T03:35:06.459Z,-1.01
2019-02-12T03:37:39.074Z,-0.93
2019-02-12T03:40:12.330Z,-0.94
2019-02-12T03:42:44.990Z,-1.03
2019-02-12T03:45:17.740Z,-1.10
2019-02-12T03:47:50.285Z,-1.13
2019-02-12T03:50:22.942Z,-1.08
2019-02-12T03:52:55.625Z,-0.90
2019-02-12T03:55:28.287Z,-0.82
2019-02-12T03:58:00.848Z,-0.89
2019-02-12T04:00:33.473Z,-1.01
2019-02-12T04:03:08.463Z,-1.16
2019-02-12T04:05:41.577Z,-1.27
2019-02-12T04:08:13.536Z,-1.36
2019-02-12T04:10:46.101Z,-1.44
2019-02-12T04:13:18.870Z,-1.50
2019-02-12T04:15:51.465Z,-1.43
2019-02-12T04:18:24.189Z,-1.58
2019-02-12T04:20:56.824Z,-1.73
2019-02-12T04:23:29.729Z,-1.71
2019-02-12T04:26:02.315Z,-1.78
2019-02-12T04:28:38.096Z,-1.79
2019-02-12T04:31:10.651Z,-1.71
2019-02-12T04:33:43.683Z,-1.65
2019-02-12T04:36:16.267Z,-1.64
2019-02-12T04:38:49.055Z,-1.66
2019-02-12T04:41:21.663Z,-1.67
2019-02-12T04:43:54.254Z,-1.65
2019-02-12T04:46:26.988Z,-1.54
2019-02-12T04:48:59.761Z,-1.60
2019-02-12T04:51:32.357Z,-1.54
2019-02-12T04:54:05.062Z,-1.57
2019-02-12T04:56:37.711Z,-1.58
2019-02-12T04:59:10.323Z,-1.65
2019-02-12T05:01:43.103Z,-1.69
2019-02-12T05:04:15.687Z,-1.73
2019-02-12T05:06:48.273Z,-1.68
2019-02-12T05:09:22.890Z,-1.74
2019-02-12T05:12:01.982Z,-1.83
2019-02-12T05:14:34.577Z,-1.90
2019-02-12T05:17:07.244Z,-1.90
2019-02-12T05:19:39.813Z,-1.98
2019-02-12T05:22:12.459Z,-2.00
2019-02-12T05:24:45.561Z,-2.21
2019-02-12T05:27:18.516Z,-2.32
2019-02-12T05:29:51.140Z,-2.44
2019-02-12T05:32:23.730Z,-2.29
2019-02-12T05:34:56.360Z,-2.23
2019-02-12T05:37:29.412Z,-2.35
2019-02-12T05:40:02.026Z,-2.42
2019-02-12T05:42:34.618Z,-2.46
2019-02-12T05:45:08.466Z,-2.45
2019-02-12T05:47:41.238Z,-2.46
2019-02-12T05:50:14.299Z,-2.49
2019-02-12T05:52:53.622Z,-2.54
2019-02-12T05:55:21.197Z,-2.69
2019-02-12T05:57:53.808Z,-2.69
2019-02-12T06:00:28.590Z,-2.57
2019-02-12T06:03:01.237Z,-2.65
2019-02-12T06:05:33.885Z,-2.70
2019-02-12T06:08:06.683Z,-2.83
2019-02-12T06:10:39.272Z,-2.94
2019-02-12T06:13:11.869Z,-2.93
2019-02-12T06:15:44.588Z,-2.83
2019-02-12T06:18:17.349Z,-2.79
2019-02-12T06:20:50.074Z,-2.86
2019-02-12T06:23:22.676Z,-2.98
2019-02-12T06:25:55.423Z,-3.03
2019-02-12T06:28:28.236Z,-3.05
2019-02-12T06:31:00.892Z,-3.03
2019-02-12T06:33:33.597Z,-3.10
2019-02-12T06:36:06.351Z,-3.09
2019-02-12T06:38:39.016Z,-3.11
2019-02-12T06:41:11.757Z,-3.07
2019-02-12T06:43:44.453Z,-3.06
2019-02-12T06:46:17.266Z,-2.92
2019-02-12T06:48:49.802Z,-2.84
2019-02-12T06:51:22.569Z,-2.80
2019-02-12T06:53:55.389Z,-2.86
2019-02-12T06:56:28.113Z,-2.99
2019-02-12T06:59:00.809Z,-3.07
2019-02-12T07:01:33.994Z,-3.08
2019-02-12T07:04:12.199Z,-3.03
2019-02-12T07:07:26.994Z,-2.98
2019-02-12T07:10:06.323Z,-2.93
2019-02-12T07:13:14.546Z,-2.91
2019-02-12T07:16:35.646Z,-2.89
2019-02-12T07:20:10.015Z,-2.96
2019-02-12T07:23:23.912Z,-3.07
2019-02-12T07:27:23.148Z,-3.03
2019-02-12T07:30:31.854Z,-2.92
2019-02-12T07:34:21.415Z,-2.77
2019-02-12T07:37:31.058Z,-2.75
2019-02-12T07:41:02.672Z,-2.85
2019-02-12T07:44:23.645Z,-2.73
2019-02-12T07:48:12.901Z,-2.51
2019-02-12T07:51:33.617Z,-2.34
2019-02-12T07:55:01.313Z,-2.26
2019-02-12T07:58:30.830Z,-2.15
2019-02-12T08:01:28.945Z,-1.11
2019-02-12T08:05:34.119Z,-0.22
2019-02-12T08:08:58.753Z,-0.03
2019-02-12T08:11:46.651Z,-0.16
2019-02-12T08:14:59.924Z,-0.42
2019-02-12T08:18:03.651Z,-0.40
2019-02-12T08:21:20.954Z,-0.03
2019-02-12T08:24:34.667Z,-0.04
2019-02-12T08:28:12.168Z,0.35
2019-02-12T08:31:20.304Z,0.64
2019-02-12T08:34:49.995Z,0.65
2019-02-12T08:38:32.814Z,0.90
2019-02-12T08:41:42.935Z,1.01
2019-02-12T08:45:17.202Z,1.32
2019-02-12T08:48:58.198Z,1.68
2019-02-12T08:52:24.488Z,1.91
2019-02-12T08:55:53.231Z,3.30
2019-02-12T08:59:06.442Z,3.88
2019-02-12T09:02:54.992Z,4.63
2019-02-12T09:06:33.039Z,4.87
2019-02-12T09:10:01.889Z,5.23
2019-02-12T09:13:33.659Z,5.85
2019-02-12T09:16:56.354Z,6.90
2019-02-12T09:19:51.861Z,6.55
2019-02-12T09:23:25.011Z,7.14
2019-02-12T09:26:36.783Z,7.04
2019-02-12T09:30:39.208Z,7.87
2019-02-12T09:34:14.663Z,8.04
2019-02-12T09:37:37.907Z,7.73
2019-02-12T09:40:44.667Z,7.49
2019-02-12T09:44:09.249Z,8.18
2019-02-12T09:47:46.454Z,8.90
2019-02-12T09:51:25.137Z,8.24
2019-02-12T09:54:33.682Z,7.72
2019-02-12T09:57:52.649Z,7.60
2019-02-12T10:00:58.148Z,7.09
2019-02-12T10:04:21.464Z,8.37
2019-02-12T10:07:54.053Z,8.35
2019-02-12T10:11:23.139Z,7.43
2019-02-12T10:14:47.283Z,7.44
2019-02-12T10:18:08.857Z,7.19
2019-02-12T10:21:27.009Z,6.73
2019-02-12T10:24:46.518Z,6.95
2019-02-12T10:28:08.706Z,7.78
2019-02-12T10:31:18.336Z,6.79
2019-02-12T10:33:50.973Z,7.01
2019-02-12T10:36:23.604Z,7.12
2019-02-12T10:38:56.152Z,7.10
2019-02-12T10:41:28.846Z,7.58
2019-02-12T10:44:01.539Z,7.76
2019-02-12T10:46:34.108Z,8.24
2019-02-12T10:49:06.741Z,8.23
2019-02-12T10:51:40.225Z,7.82
2019-02-12T10:54:13.649Z,7.93
2019-02-12T10:56:46.454Z,7.27
2019-02-12T10:59:19.160Z,7.14
2019-02-12T11:01:51.689Z,6.66
2019-02-12T11:04:24.295Z,7.13
2019-02-12T11:06:56.828Z,7.71
2019-02-12T11:09:29.528Z,7.31
2019-02-12T11:12:02.101Z,8.14
2019-02-12T11:14:34.693Z,7.89
2019-02-12T11:17:07.419Z,7.77
2019-02-12T11:19:39.976Z,8.18
2019-02-12T11:22:12.628Z,8.58
2019-02-12T11:24:45.308Z,8.33
2019-02-12T11:27:17.973Z,9.04
2019-02-12T11:29:50.784Z,8.99
2019-02-12T11:32:23.504Z,9.14
2019-02-12T11:34:56.285Z,8.89
2019-02-12T11:37:28.968Z,9.00
2019-02-12T11:40:01.496Z,8.84
2019-02-12T11:42:34.368Z,8.52
2019-02-12T11:45:08.302Z,8.11
2019-02-12T11:47:41.068Z,8.68
2019-02-12T11:50:14.054Z,8.64
2019-02-12T11:52:46.841Z,8.64
2019-02-12T11:55:19.411Z,8.68
2019-02-12T11:57:52.073Z,8.36
2019-02-12T12:00:28.729Z,7.95
2019-02-12T12:03:01.388Z,7.38
2019-02-12T12:05:34.153Z,7.21
2019-02-12T12:08:06.934Z,7.00
2019-02-12T12:10:39.531Z,7.19
2019-02-12T12:13:12.172Z,7.31
2019-02-12T12:15:44.792Z,7.52
2019-02-12T12:18:17.411Z,7.48
2019-02-12T12:20:50.013Z,7.00
2019-02-12T12:23:22.642Z,6.33
2019-02-12T12:25:55.186Z,6.17
2019-02-12T12:28:27.765Z,6.49
2019-02-12T12:31:00.439Z,6.44
2019-02-12T12:33:33.083Z,6.67
2019-02-12T12:36:05.841Z,6.61
2019-02-12T12:38:38.527Z,6.58
2019-02-12T12:41:11.152Z,6.45
2019-02-12T12:43:44.014Z,6.11
2019-02-12T12:46:16.622Z,6.52
2019-02-12T12:48:49.186Z,6.90
2019-02-12T12:51:21.945Z,6.75
2019-02-12T12:53:54.605Z,6.97
2019-02-12T12:56:27.330Z,6.97
2019-02-12T12:58:59.937Z,6.80
2019-02-12T13:01:32.582Z,6.78
2019-02-12T13:04:04.717Z,6.64
2019-02-12T13:06:37.454Z,6.61
2019-02-12T13:09:10.009Z,7.02
2019-02-12T13:11:42.754Z,6.89
2019-02-12T13:14:15.390Z,7.14
2019-02-12T13:16:48.182Z,7.13
2019-02-12T13:19:20.849Z,7.02
2019-02-12T13:21:53.432Z,6.58
2019-02-12T13:24:26.035Z,6.35
2019-02-12T13:26:58.684Z,6.39
2019-02-12T13:29:31.273Z,6.33
2019-02-12T13:32:04.067Z,6.55
2019-02-12T13:34:36.744Z,6.68
2019-02-12T13:37:09.401Z,6.54
2019-02-12T13:39:42.046Z,6.31
2019-02-12T13:42:14.653Z,6.26
2019-02-12T13:44:47.264Z,6.43
2019-02-12T13:47:19.975Z,6.61
2019-02-12T13:49:52.626Z,7.07
2019-02-12T13:52:25.214Z,7.68
2019-02-12T13:54:57.765Z,7.63
2019-02-12T13:57:30.457Z,7.45
2019-02-12T14:00:03.083Z,7.38
2019-02-12T14:02:35.715Z,6.62
2019-02-12T14:05:12.167Z,6.08
2019-02-12T14:07:44.923Z,6.28
2019-02-12T14:10:17.677Z,6.39
2019-02-12T14:12:50.420Z,6.45
2019-02-12T14:15:23.121Z,6.70
2019-02-12T14:17:56.148Z,6.65
2019-02-12T14:20:28.788Z,6.54
2019-02-12T14:23:01.515Z,7.03
2019-02-12T14:25:34.240Z,7.34
2019-02-12T14:28:07.131Z,7.28
2019-02-12T14:30:39.922Z,7.09
2019-02-12T14:33:12.599Z,6.48
2019-02-12T14:35:45.207Z,6.25
2019-02-12T14:38:17.903Z,6.31
2019-02-12T14:40:50.482Z,6.09
2019-02-12T14:43:23.143Z,5.92
2019-02-12T14:45:55.775Z,5.88
2019-02-12T14:48:28.468Z,5.98
2019-02-12T14:51:01.291Z,5.86
2019-02-12T14:53:33.857Z,5.76
2019-02-12T14:56:11.318Z,5.76
2019-02-12T14:58:41.121Z,5.95
2019-02-12T15:01:13.850Z,5.86
2019-02-12T15:03:46.848Z,6.18
2019-02-12T15:06:19.641Z,6.25
2019-02-12T15:08:55.261Z,6.34
2019-02-12T15:11:27.945Z,6.38
2019-02-12T15:14:00.686Z,6.29
2019-02-12T15:16:33.234Z,6.20
2019-02-12T15:19:05.868Z,6.23
2019-02-12T15:21:38.551Z,6.29
2019-02-12T15:24:11.299Z,6.25
2019-02-12T15:26:43.877Z,6.24
2019-02-12T15:29:16.552Z,6.10
2019-02-12T15:31:49.142Z,5.98
2019-02-12T15:34:21.794Z,5.91
2019-02-12T15:36:55.520Z,5.74
2019-02-12T15:39:28.174Z,5.92
2019-02-12T15:42:00.871Z,5.66
2019-02-12T15:44:33.514Z,5.37
2019-02-12T15:47:06.085Z,5.37
2019-02-12T15:49:38.832Z,5.46
2019-02-12T15:52:11.465Z,5.55
2019-02-12T15:54:44.088Z,5.63
2019-02-12T15:57:16.637Z,5.76
2019-02-12T15:59:49.416Z,5.90
2019-02-12T16:02:22.197Z,5.70
2019-02-12T16:04:55.176Z,5.47
2019-02-12T16:07:27.818Z,5.23
2019-02-12T16:10:00.553Z,4.68
2019-02-12T16:12:33.102Z,4.32
2019-02-12T16:15:06.195Z,3.76
2019-02-12T16:17:39.380Z,3.36
2019-02-12T16:20:12.132Z,3.07
2019-02-12T16:22:44.817Z,2.96
2019-02-12T16:25:17.518Z,2.92
2019-02-12T16:27:50.190Z,2.69
2019-02-12T16:30:22.930Z,2.29
2019-02-12T16:32:55.568Z,1.98
2019-02-12T16:35:28.122Z,1.78
2019-02-12T16:38:01.245Z,1.67
2019-02-12T16:40:33.817Z,1.53
2019-02-12T16:43:06.463Z,1.36
2019-02-12T16:46:00.452Z,1.25
2019-02-12T16:48:33.140Z,1.08
2019-02-12T16:51:05.757Z,0.86
2019-02-12T16:53:38.535Z,0.70
2019-02-12T16:56:11.380Z,0.62
2019-02-12T16:58:44.023Z,0.58
2019-02-12T17:01:16.713Z,0.51
2019-02-12T17:03:49.456Z,0.47
2019-02-12T17:06:22.114Z,0.37
2019-02-12T17:08:54.914Z,0.29
2019-02-12T17:11:27.585Z,0.22
2019-02-12T17:14:00.621Z,0.11
2019-02-12T17:16:33.228Z,-0.04
2019-02-12T17:19:05.984Z,-0.08
2019-02-12T17:21:38.616Z,-0.04
2019-02-12T17:24:11.567Z,-0.14
2019-02-12T17:26:44.160Z,-0.04
2019-02-12T17:29:16.770Z,-0.06
2019-02-12T17:31:49.448Z,-0.16
2019-02-12T17:34:22.077Z,-0.35
2019-02-12T17:36:54.622Z,-0.29
2019-02-12T17:39:27.365Z,-0.38
2019-02-12T17:42:00.066Z,-0.44
2019-02-12T17:44:32.802Z,-0.54
2019-02-12T17:47:05.943Z,-0.69
2019-02-12T17:49:38.542Z,-0.70
2019-02-12T17:52:11.304Z,-0.69
2019-02-12T17:54:43.918Z,-0.70
2019-02-12T17:57:16.618Z,-0.78
2019-02-12T17:59:49.211Z,-0.73
2019-02-12T18:02:21.807Z,-0.76
2019-02-12T18:04:54.437Z,-0.80
2019-02-12T18:07:27.149Z,-0.86
2019-02-12T18:09:59.835Z,-1.02
2019-02-12T18:12:35.863Z,-1.14
2019-02-12T18:15:09.179Z,-1.16
2019-02-12T18:17:41.832Z,-1.23
2019-02-12T18:20:14.778Z,-1.20
2019-02-12T18:22:47.396Z,-1.28
2019-02-12T18:25:20.030Z,-1.15
2019-02-12T18:27:52.586Z,-1.04
2019-02-12T18:30:25.252Z,-0.96
2019-02-12T18:32:57.837Z,-0.87
2019-02-12T18:35:30.537Z,-0.90
2019-02-12T18:38:03.308Z,-1.05
2019-02-12T18:40:36.096Z,-1.14
2019-02-12T18:43:09.057Z,-1.28
2019-02-12T18:45:41.710Z,-1.31
2019-02-12T18:48:14.592Z,-1.24
2019-02-12T18:50:47.264Z,-1.31
2019-02-12T18:53:19.981Z,-1.33
2019-02-12T18:55:52.829Z,-1.37
2019-02-12T18:58:25.526Z,-1.37
2019-02-12T19:01:00.706Z,-1.41
2019-02-12T19:03:34.789Z,-1.40
2019-02-12T19:06:07.993Z,-1.49
2019-02-12T19:08:40.662Z,-1.63
2019-02-12T19:11:13.362Z,-1.64
2019-02-12T19:13:46.031Z,-1.75
2019-02-12T19:16:18.672Z,-1.85
2019-02-12T19:18:51.395Z,-1.91
2019-02-12T19:21:24.012Z,-1.87
2019-02-12T19:23:56.837Z,-1.81
2019-02-12T19:26:29.584Z,-1.81
2019-02-12T19:29:02.512Z,-1.75
2019-02-12T19:31:35.359Z,-1.67
2019-02-12T19:34:08.131Z,-1.70
2019-02-12T19:36:41.635Z,-1.76
2019-02-12T19:39:14.196Z,-1.86
2019-02-12T19:41:46.870Z,-2.00
2019-02-12T19:44:19.520Z,-1.86
2019-02-12T19:46:52.152Z,-1.61
2019-02-12T19:49:24.834Z,-1.55
2019-02-12T19:51:57.426Z,-1.49
2019-02-12T19:54:30.337Z,-1.56
2019-02-12T19:57:02.944Z,-1.71
2019-02-12T19:59:35.697Z,-1.81
2019-02-12T20:02:08.863Z,-2.00
2019-02-12T20:04:41.548Z,-2.11
2019-02-12T20:07:14.216Z,-2.15
2019-02-12T20:09:46.960Z,-2.06
2019-02-12T20:12:19.572Z,-1.93
2019-02-12T20:14:52.330Z,-1.89
2019-02-12T20:17:24.959Z,-1.90
2019-02-12T20:19:57.810Z,-1.79
2019-02-12T20:22:30.554Z,-1.89
2019-02-12T20:25:06.412Z,-1.99
2019-02-12T20:27:39.191Z,-2.03
2019-02-12T20:30:14.483Z,-2.00
2019-02-12T20:32:47.160Z,-1.98
2019-02-12T20:35:19.758Z,-1.98
2019-02-12T20:37:52.482Z,-2.00
2019-02-12T20:40:25.070Z,-2.18
2019-02-12T20:42:57.788Z,-2.22
2019-02-12T20:45:30.444Z,-2.18
2019-02-12T20:48:04.332Z,-2.16
2019-02-12T20:50:37.039Z,-1.96
2019-02-12T20:53:09.692Z,-1.68
2019-02-12T20:55:42.587Z,-1.74
2019-02-12T20:58:15.348Z,-1.69
2019-02-12T21:00:48.400Z,-1.72
2019-02-12T21:03:21.036Z,-2.03
2019-02-12T21:05:53.699Z,-2.17
2019-02-12T21:08:26.470Z,-2.24
2019-02-12T21:10:59.055Z,-2.28
2019-02-12T21:13:31.826Z,-2.30
2019-02-12T21:16:04.255Z,-2.40
2019-02-12T21:18:37.058Z,-2.34
2019-02-12T21:21:09.597Z,-2.26
2019-02-12T21:23:42.220Z,-2.07
2019-02-12T21:26:14.846Z,-2.00
2019-02-12T21:28:47.521Z,-2.12
2019-02-12T21:31:19.430Z,-2.03
2019-02-12T21:33:52.259Z,-2.07
2019-02-12T21:36:25.025Z,-2.22
2019-02-12T21:38:57.659Z,-2.30
2019-02-12T21:41:30.920Z,-2.31
2019-02-12T21:44:03.577Z,-2.36
2019-02-12T21:46:36.199Z,-2.28
2019-02-12T21:49:09.427Z,-2.38
2019-02-12T21:51:42.211Z,-2.43
2019-02-12T21:54:14.928Z,-2.47
2019-02-12T21:56:47.483Z,-2.69
2019-02-12T21:59:20.231Z,-2.66
2019-02-12T22:01:52.851Z,-2.70
2019-02-12T22:04:25.699Z,-2.64
2019-02-12T22:06:58.400Z,-2.54
2019-02-12T22:09:31.172Z,-2.61
2019-02-12T22:12:03.809Z,-2.63
2019-02-12T22:14:36.609Z,-2.69
2019-02-12T22:17:09.312Z,-2.78
2019-02-12T22:19:41.842Z,-2.80
2019-02-12T22:22:14.622Z,-2.70
2019-02-12T22:24:47.391Z,-2.60
2019-02-12T22:27:20.045Z,-2.68
2019-02-12T22:29:55.132Z,-2.64
2019-02-12T22:32:27.794Z,-2.60
2019-02-12T22:35:00.426Z,-2.70
2019-02-12T22:37:33.073Z,-2.87
2019-02-12T22:40:06.373Z,-2.81
2019-02-12T22:42:39.141Z,-2.85
2019-02-12T22:45:17.804Z,-2.85
2019-02-12T22:47:51.557Z,-2.91
2019-02-12T22:50:24.259Z,-2.92
2019-02-12T22:52:57.096Z,-2.92
2019-02-12T22:55:29.716Z,-2.90
2019-02-12T22:58:02.527Z,-2.92
2019-02-12T23:00:55.487Z,-2.91
2019-02-12T23:03:28.319Z,-2.93
2019-02-12T23:06:01.018Z,-2.87
2019-02-12T23:08:33.791Z,-2.86
2019-02-12T23:11:08.182Z,-2.81
2019-02-12T23:13:39.979Z,-2.57
2019-02-12T23:16:12.530Z,-2.69
2019-02-12T23:18:45.168Z,-2.61
2019-02-12T23:21:17.946Z,-2.53
2019-02-12T23:23:50.640Z,-2.72
2019-02-12T23:26:23.292Z,-2.94
2019-02-12T23:28:56.060Z,-3.08
2019-02-12T23:31:28.639Z,-2.96
2019-02-12T23:34:01.344Z,-2.79
2019-02-12T23:36:34.007Z,-2.96
2019-02-12T23:39:07.579Z,-2.83
2019-02-12T23:41:40.354Z,-2.77
2019-02-12T23:44:13.185Z,-2.70
2019-02-12T23:46:45.853Z,-2.82
2019-02-12T23:49:18.426Z,-2.88
2019-02-12T23:51:51.041Z,-3.01
2019-02-12T23:54:23.602Z,-2.98
2019-02-12T23:56:55.898Z,-3.15
2019-02-12T23:59:28.649Z,-3.28
